createdAt,value
2018-04-26T00:02:25.929Z,16.20
2018-04-26T00:04:54.355Z,16.10
2018-04-26T00:07:21.975Z,16.10
2018-04-26T00:09:55.253Z,16.10
2018-04-26T00:12:22.897Z,16.00
2018-04-26T00:14:50.506Z,16.10
2018-04-26T00:17:18.146Z,15.90
2018-04-26T00:19:46.587Z,15.90
2018-04-26T00:22:14.234Z,15.90
2018-04-26T00:24:41.891Z,16.00
2018-04-26T00:27:09.534Z,16.00
2018-04-26T00:29:37.174Z,16.10
2018-04-26T00:32:05.557Z,16.10
2018-04-26T00:34:33.969Z,16.10
2018-04-26T00:37:01.615Z,16.20
2018-04-26T00:39:29.291Z,16.20
2018-04-26T00:41:56.900Z,16.20
2018-04-26T00:44:24.554Z,16.20
2018-04-26T00:46:52.197Z,16.20
2018-04-26T00:49:19.798Z,16.20
2018-04-26T00:52:00.156Z,16.00
2018-04-26T00:54:28.551Z,16.00
2018-04-26T00:56:56.200Z,16.00
2018-04-26T00:59:24.578Z,16.00
2018-04-26T01:01:53.135Z,16.00
2018-04-26T01:04:20.769Z,16.00
2018-04-26T01:06:49.229Z,16.00
2018-04-26T01:09:16.856Z,15.90
2018-04-26T01:11:44.457Z,15.90
2018-04-26T01:14:12.117Z,15.80
2018-04-26T01:16:39.810Z,15.80
2018-04-26T01:19:07.418Z,15.80
2018-04-26T01:21:39.222Z,15.60
2018-04-26T01:24:07.637Z,15.50
2018-04-26T01:26:35.287Z,15.50
2018-04-26T01:29:02.898Z,15.50
2018-04-26T01:31:30.550Z,15.40
2018-04-26T01:33:58.201Z,15.40
2018-04-26T01:36:38.438Z,15.20
2018-04-26T01:39:06.862Z,15.30
2018-04-26T01:41:34.474Z,15.30
2018-04-26T01:44:02.167Z,15.30
2018-04-26T01:46:30.534Z,15.20
2018-04-26T01:48:58.960Z,15.30
2018-04-26T01:51:26.578Z,15.20
2018-04-26T01:53:54.462Z,15.20
2018-04-26T01:56:22.106Z,15.20
2018-04-26T01:58:50.481Z,15.20
2018-04-26T02:01:18.894Z,15.20
2018-04-26T02:03:46.502Z,15.20
2018-04-26T02:06:14.154Z,15.30
2018-04-26T02:08:41.777Z,15.30
2018-04-26T02:11:09.438Z,15.30
2018-04-26T02:13:37.048Z,15.30
2018-04-26T02:16:04.673Z,15.30
2018-04-26T02:18:32.335Z,15.40
2018-04-26T02:20:59.981Z,15.40
2018-04-26T02:23:27.646Z,15.40
2018-04-26T02:25:55.292Z,15.40
2018-04-26T02:28:22.889Z,15.30
2018-04-26T02:30:50.525Z,15.30
2018-04-26T02:33:18.193Z,15.30
2018-04-26T02:35:45.803Z,15.30
2018-04-26T02:38:14.232Z,15.30
2018-04-26T02:40:41.914Z,15.30
2018-04-26T02:43:09.565Z,15.40
2018-04-26T02:45:37.170Z,15.30
2018-04-26T02:48:05.607Z,15.40
2018-04-26T02:50:33.213Z,15.40
2018-04-26T02:53:01.586Z,15.50
2018-04-26T02:55:30.020Z,15.50
2018-04-26T02:57:57.642Z,15.50
2018-04-26T03:00:26.024Z,15.50
2018-04-26T03:02:54.471Z,15.50
2018-04-26T03:05:22.118Z,15.50
2018-04-26T03:07:49.767Z,15.60
2018-04-26T03:10:17.415Z,15.60
2018-04-26T03:12:45.127Z,15.60
2018-04-26T03:15:12.755Z,15.50
2018-04-26T03:17:40.388Z,15.60
2018-04-26T03:20:07.990Z,15.60
2018-04-26T03:22:35.645Z,15.60
2018-04-26T03:25:03.298Z,15.60
2018-04-26T03:27:30.937Z,15.50
2018-04-26T03:29:58.564Z,15.60
2018-04-26T03:32:26.972Z,15.50
2018-04-26T03:34:54.574Z,15.50
2018-04-26T03:37:22.256Z,15.60
2018-04-26T03:39:49.853Z,15.60
2018-04-26T03:42:17.485Z,15.60
2018-04-26T03:44:45.858Z,15.60
2018-04-26T03:47:13.506Z,15.50
2018-04-26T03:49:41.149Z,15.50
2018-04-26T03:52:08.807Z,15.60
2018-04-26T03:54:36.431Z,15.60
2018-04-26T03:57:04.085Z,15.60
2018-04-26T03:59:43.420Z,15.60
2018-04-26T04:02:23.694Z,15.60
2018-04-26T04:05:03.234Z,15.60
2018-04-26T04:07:30.887Z,15.60
2018-04-26T04:09:58.550Z,15.70
2018-04-26T04:12:26.183Z,15.70
2018-04-26T04:14:53.838Z,15.60
2018-04-26T04:17:21.511Z,15.70
2018-04-26T04:19:49.927Z,15.70
2018-04-26T04:22:17.615Z,15.70
2018-04-26T04:24:45.255Z,15.70
2018-04-26T04:27:12.906Z,15.70
2018-04-26T04:29:40.519Z,15.80
2018-04-26T04:32:08.397Z,15.80
2018-04-26T04:34:36.019Z,15.70
2018-04-26T04:37:03.681Z,15.70
2018-04-26T04:39:31.302Z,15.70
2018-04-26T04:41:59.739Z,15.80
2018-04-26T04:44:27.350Z,15.70
2018-04-26T04:46:55.007Z,15.80
2018-04-26T04:49:22.618Z,15.80
2018-04-26T04:51:50.270Z,15.80
2018-04-26T04:54:17.932Z,15.80
2018-04-26T04:56:45.542Z,15.80
2018-04-26T04:59:13.968Z,15.90
2018-04-26T05:01:41.634Z,15.90
2018-04-26T05:04:09.252Z,15.90
2018-04-26T05:06:37.676Z,15.90
2018-04-26T05:09:05.315Z,15.90
2018-04-26T05:11:32.970Z,16.00
2018-04-26T05:14:00.631Z,16.00
2018-04-26T05:16:28.286Z,16.10
2018-04-26T05:18:55.913Z,16.20
2018-04-26T05:21:23.537Z,16.30
2018-04-26T05:23:51.173Z,16.30
2018-04-26T05:26:18.795Z,16.40
2018-04-26T05:28:46.893Z,16.40
2018-04-26T05:31:15.269Z,16.50
2018-04-26T05:33:43.724Z,16.50
2018-04-26T05:36:11.326Z,16.50
2018-04-26T05:38:38.993Z,16.50
2018-04-26T05:41:06.615Z,16.50
2018-04-26T05:43:34.226Z,16.40
2018-04-26T05:46:01.923Z,16.40
2018-04-26T05:48:29.534Z,16.40
2018-04-26T05:50:58.079Z,16.40
2018-04-26T05:53:25.703Z,16.40
2018-04-26T05:55:53.386Z,16.50
2018-04-26T05:58:21.020Z,16.50
2018-04-26T06:00:48.671Z,16.50
2018-04-26T06:03:16.294Z,16.50
2018-04-26T06:05:44.722Z,16.60
2018-04-26T06:08:12.395Z,16.60
2018-04-26T06:10:40.007Z,16.60
2018-04-26T06:13:08.437Z,16.50
2018-04-26T06:15:36.095Z,16.50
2018-04-26T06:18:03.767Z,16.50
2018-04-26T06:20:31.422Z,16.50
2018-04-26T06:22:59.038Z,16.50
2018-04-26T06:25:26.702Z,16.50
2018-04-26T06:27:54.360Z,16.60
2018-04-26T06:30:22.027Z,16.60
2018-04-26T06:32:49.718Z,16.60
2018-04-26T06:35:17.329Z,16.70
2018-04-26T06:37:45.807Z,16.80
2018-04-26T06:40:14.194Z,16.80
2018-04-26T06:42:42.629Z,16.80
2018-04-26T06:45:10.246Z,16.80
2018-04-26T06:47:38.672Z,16.80
2018-04-26T06:50:06.299Z,16.80
2018-04-26T06:52:33.947Z,16.70
2018-04-26T06:55:02.385Z,16.60
2018-04-26T06:57:30.001Z,16.70
2018-04-26T06:59:57.671Z,16.60
2018-04-26T07:02:25.285Z,16.60
2018-04-26T07:04:53.837Z,16.70
2018-04-26T07:07:22.259Z,16.80
2018-04-26T07:09:50.638Z,16.80
2018-04-26T07:12:19.066Z,16.90
2018-04-26T07:14:46.718Z,16.90
2018-04-26T07:17:14.379Z,17.00
2018-04-26T07:19:41.999Z,17.00
2018-04-26T07:22:09.687Z,17.10
2018-04-26T07:24:37.343Z,17.10
2018-04-26T07:27:05.014Z,17.20
2018-04-26T07:29:32.634Z,17.30
2018-04-26T07:32:00.323Z,17.40
2018-04-26T07:34:28.741Z,17.60
2018-04-26T07:36:56.354Z,17.60
2018-04-26T07:39:24.791Z,17.60
2018-04-26T07:41:52.411Z,17.60
2018-04-26T07:44:20.067Z,17.70
2018-04-26T07:46:48.507Z,17.70
2018-04-26T07:49:16.126Z,17.70
2018-04-26T07:51:44.020Z,17.70
2018-04-26T07:54:11.714Z,17.70
2018-04-26T07:56:39.367Z,17.70
2018-04-26T07:59:07.015Z,17.70
2018-04-26T08:01:34.688Z,17.80
2018-04-26T08:04:02.327Z,17.90
2018-04-26T08:06:30.021Z,18.00
2018-04-26T08:08:57.629Z,18.00
2018-04-26T08:11:25.322Z,18.20
2018-04-26T08:13:52.983Z,18.20
2018-04-26T08:16:21.442Z,18.40
2018-04-26T08:18:49.134Z,18.30
2018-04-26T08:21:16.750Z,18.40
2018-04-26T08:23:44.415Z,18.50
2018-04-26T08:26:12.954Z,18.50
2018-04-26T08:28:40.670Z,18.60
2018-04-26T08:31:08.330Z,18.70
2018-04-26T08:33:35.953Z,18.80
2018-04-26T08:36:04.369Z,19.00
2018-04-26T08:38:32.067Z,19.00
2018-04-26T08:41:00.713Z,19.00
2018-04-26T08:43:28.457Z,19.10
2018-04-26T08:45:56.893Z,19.10
2018-04-26T08:48:24.568Z,19.10
2018-04-26T08:50:52.238Z,19.20
2018-04-26T08:53:19.877Z,19.20
2018-04-26T08:55:48.306Z,19.20
2018-04-26T08:58:15.926Z,19.20
2018-04-26T09:00:44.348Z,19.10
2018-04-26T09:03:12.006Z,19.20
2018-04-26T09:05:40.413Z,19.20
2018-04-26T09:08:08.072Z,19.20
2018-04-26T09:10:35.734Z,19.20
2018-04-26T09:13:03.354Z,19.20
2018-04-26T09:15:31.827Z,19.20
2018-04-26T09:18:00.308Z,19.10
2018-04-26T09:20:27.960Z,19.10
2018-04-26T09:22:55.646Z,19.10
2018-04-26T09:25:24.634Z,19.00
2018-04-26T09:27:53.010Z,19.00
2018-04-26T09:30:21.459Z,19.00
2018-04-26T09:32:49.735Z,19.00
2018-04-26T09:35:18.151Z,18.90
2018-04-26T09:37:45.859Z,18.90
2018-04-26T09:40:13.474Z,18.90
2018-04-26T09:42:41.960Z,18.90
2018-04-26T09:45:10.347Z,18.80
2018-04-26T09:47:38.027Z,18.80
2018-04-26T09:50:05.783Z,18.80
2018-04-26T09:52:33.402Z,18.80
2018-04-26T09:55:01.066Z,18.80
2018-04-26T09:57:29.504Z,18.70
2018-04-26T09:59:57.126Z,18.70
2018-04-26T10:02:25.548Z,18.70
2018-04-26T10:04:55.082Z,18.60
2018-04-26T10:07:22.737Z,18.70
2018-04-26T10:09:50.354Z,18.60
2018-04-26T10:12:18.023Z,18.60
2018-04-26T10:14:46.451Z,18.50
2018-04-26T10:17:15.104Z,18.50
2018-04-26T10:19:42.718Z,18.50
2018-04-26T10:22:11.149Z,18.50
2018-04-26T10:24:38.862Z,18.50
2018-04-26T10:27:09.588Z,18.50
2018-04-26T10:29:38.068Z,18.50
2018-04-26T10:32:05.788Z,18.50
2018-04-26T10:34:33.405Z,18.50
2018-04-26T10:37:01.871Z,18.40
2018-04-26T10:39:30.292Z,18.40
2018-04-26T10:41:57.971Z,18.40
2018-04-26T10:44:25.713Z,18.40
2018-04-26T10:46:53.322Z,18.40
2018-04-26T10:49:20.973Z,18.40
2018-04-26T10:51:48.647Z,18.40
2018-04-26T10:54:16.295Z,18.30
2018-04-26T10:56:43.950Z,18.30
2018-04-26T10:59:12.370Z,18.30
2018-04-26T11:01:40.816Z,18.30
2018-04-26T11:04:08.487Z,18.30
2018-04-26T11:06:36.939Z,18.30
2018-04-26T11:09:04.792Z,18.30
2018-04-26T11:11:33.294Z,18.10
2018-04-26T11:14:01.644Z,18.00
2018-04-26T11:16:29.270Z,18.00
2018-04-26T11:18:56.947Z,17.90
2018-04-26T11:21:25.378Z,17.80
2018-04-26T11:23:52.989Z,17.80
2018-04-26T11:26:21.423Z,17.70
2018-04-26T11:28:49.091Z,17.70
2018-04-26T11:31:16.811Z,17.60
2018-04-26T11:33:44.486Z,17.50
2018-04-26T11:36:12.101Z,17.50
2018-04-26T11:38:40.615Z,17.50
2018-04-26T11:41:08.234Z,17.50
2018-04-26T11:43:35.903Z,17.40
2018-04-26T11:46:03.535Z,17.30
2018-04-26T11:48:31.200Z,17.20
2018-04-26T11:50:58.804Z,17.10
2018-04-26T11:53:26.440Z,17.10
2018-04-26T11:55:54.122Z,17.00
2018-04-26T11:58:22.567Z,16.70
2018-04-26T12:00:50.240Z,16.70
2018-04-26T12:03:17.884Z,16.70
2018-04-26T12:05:45.547Z,16.60
2018-04-26T12:08:13.446Z,16.40
2018-04-26T12:10:41.895Z,16.40
2018-04-26T12:13:09.620Z,16.40
2018-04-26T12:15:37.250Z,16.30
2018-04-26T12:18:04.903Z,16.10
2018-04-26T12:20:32.516Z,16.00
2018-04-26T12:23:00.363Z,15.80
2018-04-26T12:25:28.049Z,15.80
2018-04-26T12:27:56.591Z,15.70
2018-04-26T12:30:24.348Z,15.70
2018-04-26T12:32:52.292Z,15.70
2018-04-26T12:35:19.980Z,15.60
2018-04-26T12:37:49.139Z,15.60
2018-04-26T12:40:17.039Z,15.60
2018-04-26T12:42:44.726Z,15.50
2018-04-26T12:45:12.883Z,15.50
2018-04-26T12:47:41.312Z,15.40
2018-04-26T12:50:08.994Z,15.40
2018-04-26T12:52:36.610Z,15.40
2018-04-26T12:55:04.346Z,15.20
2018-04-26T12:57:31.973Z,15.20
2018-04-26T12:59:59.660Z,15.30
2018-04-26T13:02:28.941Z,15.40
2018-04-26T13:04:57.439Z,15.50
2018-04-26T13:07:25.069Z,15.40
2018-04-26T13:09:52.885Z,15.40
2018-04-26T13:12:21.380Z,15.50
2018-04-26T13:14:49.781Z,15.40
2018-04-26T13:17:17.429Z,15.40
2018-04-26T13:19:45.024Z,15.40
2018-04-26T13:22:12.678Z,15.40
2018-04-26T13:24:40.317Z,15.40
2018-04-26T13:27:07.967Z,15.30
2018-04-26T13:29:35.694Z,15.20
2018-04-26T13:32:04.132Z,15.30
2018-04-26T13:34:33.443Z,15.20
2018-04-26T13:37:02.460Z,15.30
2018-04-26T13:39:30.057Z,15.30
2018-04-26T13:41:58.700Z,15.40
2018-04-26T13:44:26.252Z,15.40
2018-04-26T13:46:53.884Z,15.40
2018-04-26T13:49:21.512Z,15.40
2018-04-26T13:51:49.908Z,15.30
2018-04-26T13:54:18.380Z,15.20
2018-04-26T13:56:46.788Z,15.20
2018-04-26T13:59:14.388Z,15.20
2018-04-26T14:01:42.191Z,15.10
2018-04-26T14:04:09.788Z,15.10
2018-04-26T14:06:37.489Z,15.10
2018-04-26T14:09:05.213Z,15.00
2018-04-26T14:11:33.018Z,14.90
2018-04-26T14:14:00.655Z,14.80
2018-04-26T14:16:29.018Z,14.70
2018-04-26T14:18:56.668Z,14.70
2018-04-26T14:21:24.358Z,14.60
2018-04-26T14:23:51.944Z,14.40
2018-04-26T14:26:19.613Z,14.30
2018-04-26T14:28:47.965Z,14.30
2018-04-26T14:31:15.613Z,14.20
2018-04-26T14:33:43.197Z,14.20
2018-04-26T14:36:10.828Z,14.30
2018-04-26T14:38:38.470Z,14.20
2018-04-26T14:41:06.108Z,14.20
2018-04-26T14:43:35.060Z,13.90
2018-04-26T14:46:02.700Z,13.90
2018-04-26T14:48:30.341Z,13.70
2018-04-26T14:50:57.956Z,13.40
2018-04-26T14:53:25.588Z,13.50
2018-04-26T14:55:53.208Z,13.40
2018-04-26T14:58:21.601Z,13.40
2018-04-26T15:00:49.256Z,13.40
2018-04-26T15:03:16.895Z,13.30
2018-04-26T15:05:45.266Z,13.20
2018-04-26T15:08:12.971Z,13.20
2018-04-26T15:10:40.959Z,13.00
2018-04-26T15:13:09.693Z,12.90
2018-04-26T15:15:38.108Z,12.80
2018-04-26T15:18:05.732Z,12.80
2018-04-26T15:20:34.140Z,12.50
2018-04-26T15:23:01.846Z,12.50
2018-04-26T15:25:29.498Z,12.40
2018-04-26T15:27:57.084Z,12.40
2018-04-26T15:30:24.681Z,12.40
2018-04-26T15:32:52.309Z,12.20
2018-04-26T15:35:20.525Z,12.20
2018-04-26T15:37:48.112Z,12.20
2018-04-26T15:40:16.497Z,11.90
2018-04-26T15:42:44.136Z,11.90
2018-04-26T15:45:11.777Z,11.70
2018-04-26T15:47:39.416Z,11.60
2018-04-26T15:50:08.133Z,11.50
2018-04-26T15:52:54.155Z,11.50
2018-04-26T15:55:33.624Z,11.40
2018-04-26T16:01:36.394Z,11.10
2018-04-26T16:04:16.522Z,11.20
2018-04-26T16:10:03.829Z,11.20
2018-04-26T16:12:49.029Z,11.20
2018-04-26T16:15:32.545Z,11.20
2018-04-26T16:18:19.034Z,10.90
2018-04-26T16:21:05.736Z,10.80
2018-04-26T16:24:01.547Z,10.80
2018-04-26T16:26:42.377Z,10.80
2018-04-26T16:29:29.015Z,10.80
2018-04-26T16:32:14.612Z,10.70
2018-04-26T16:34:55.002Z,10.60
2018-04-26T16:37:41.130Z,10.60
2018-04-26T16:40:08.840Z,10.60
2018-04-26T16:42:37.283Z,10.70
2018-04-26T16:45:05.054Z,10.70
2018-04-26T16:47:32.712Z,10.80
2018-04-26T16:50:00.425Z,10.70
2018-04-26T16:52:28.847Z,10.80
2018-04-26T16:54:56.522Z,10.70
2018-04-26T16:57:24.237Z,10.80
2018-04-26T16:59:51.959Z,10.80
2018-04-26T17:02:19.592Z,10.70
2018-04-26T17:04:47.366Z,10.70
2018-04-26T17:07:14.997Z,10.80
2018-04-26T17:09:43.415Z,10.80
2018-04-26T17:12:11.418Z,10.80
2018-04-26T17:14:39.857Z,10.80
2018-04-26T17:17:08.324Z,10.80
2018-04-26T17:19:36.132Z,10.80
2018-04-26T17:22:03.774Z,10.80
2018-04-26T17:24:31.446Z,10.80
2018-04-26T17:26:59.085Z,10.90
2018-04-26T17:29:26.794Z,10.70
2018-04-26T17:31:54.553Z,10.60
2018-04-26T17:34:22.933Z,10.60
2018-04-26T17:36:51.398Z,10.60
2018-04-26T17:39:19.042Z,10.60
2018-04-26T17:41:46.746Z,10.60
2018-04-26T17:44:15.178Z,10.50
2018-04-26T17:46:42.861Z,10.50
2018-04-26T17:49:10.524Z,10.50
2018-04-26T17:51:38.194Z,10.60
2018-04-26T17:54:05.857Z,10.60
2018-04-26T17:56:33.582Z,10.60
2018-04-26T17:59:01.322Z,10.50
2018-04-26T18:01:29.973Z,10.50
2018-04-26T18:03:58.422Z,10.50
2018-04-26T18:06:26.014Z,10.50
2018-04-26T18:08:53.669Z,10.50
2018-04-26T18:11:21.338Z,10.50
2018-04-26T18:13:49.725Z,10.50
2018-04-26T18:16:20.595Z,10.50
2018-04-26T18:18:50.663Z,10.50
2018-04-26T18:21:18.613Z,10.50
2018-04-26T18:23:46.428Z,10.50
2018-04-26T18:26:14.094Z,10.50
2018-04-26T18:28:41.793Z,10.50
2018-04-26T18:31:09.394Z,10.50
2018-04-26T18:33:38.070Z,10.50
2018-04-26T18:36:06.569Z,10.60
2018-04-26T18:38:35.134Z,10.60
2018-04-26T18:41:02.747Z,10.50
2018-04-26T18:43:30.362Z,10.60
2018-04-26T18:45:58.843Z,10.60
2018-04-26T18:48:26.458Z,10.60
2018-04-26T18:50:54.134Z,10.60
2018-04-26T18:53:22.038Z,10.60
2018-04-26T18:55:49.709Z,10.70
2018-04-26T18:58:17.561Z,10.70
2018-04-26T19:00:45.982Z,10.70
2018-04-26T19:03:14.257Z,10.70
2018-04-26T19:05:41.962Z,10.60
2018-04-26T19:08:09.639Z,10.60
2018-04-26T19:10:37.403Z,10.60
2018-04-26T19:13:05.056Z,10.50
2018-04-26T19:15:32.705Z,10.50
2018-04-26T19:18:01.371Z,10.40
2018-04-26T19:20:29.002Z,10.50
2018-04-26T19:22:56.739Z,10.50
2018-04-26T19:25:24.479Z,10.50
2018-04-26T19:27:52.142Z,10.50
2018-04-26T19:30:19.820Z,10.50
2018-04-26T19:32:47.484Z,10.40
2018-04-26T19:35:15.111Z,10.30
2018-04-26T19:37:42.786Z,10.30
2018-04-26T19:40:10.479Z,10.30
2018-04-26T19:42:39.469Z,10.40
2018-04-26T19:45:13.364Z,10.40
2018-04-26T19:47:40.973Z,10.40
2018-04-26T19:50:09.608Z,10.40
2018-04-26T19:52:37.340Z,10.50
2018-04-26T19:55:04.976Z,10.50
2018-04-26T19:57:32.633Z,10.50
2018-04-26T20:00:00.381Z,10.70
2018-04-26T20:02:28.797Z,10.70
2018-04-26T20:04:56.427Z,10.70
2018-04-26T20:07:24.803Z,10.70
2018-04-26T20:09:52.584Z,10.60
2018-04-26T20:12:20.725Z,10.60
2018-04-26T20:14:48.349Z,10.70
2018-04-26T20:17:15.995Z,10.70
2018-04-26T20:19:43.659Z,10.70
2018-04-26T20:22:11.659Z,10.70
2018-04-26T20:24:39.406Z,10.70
2018-04-26T20:27:07.007Z,10.70
2018-04-26T20:29:34.663Z,10.70
2018-04-26T20:32:02.320Z,10.70
2018-04-26T20:34:29.920Z,10.60
2018-04-26T20:36:57.642Z,10.60
2018-04-26T20:39:25.302Z,10.60
2018-04-26T20:41:54.843Z,10.70
2018-04-26T20:44:34.261Z,10.60
2018-04-26T20:47:02.721Z,10.60
2018-04-26T20:49:30.378Z,10.60
2018-04-26T20:51:58.023Z,10.60
2018-04-26T20:54:25.693Z,10.60
2018-04-26T20:56:53.326Z,10.70
2018-04-26T20:59:21.013Z,10.70
2018-04-26T21:01:48.702Z,10.70
2018-04-26T21:04:16.289Z,10.70
2018-04-26T21:06:44.790Z,10.70
2018-04-26T21:09:12.410Z,10.70
2018-04-26T21:11:40.041Z,10.80
2018-04-26T21:14:07.653Z,10.80
2018-04-26T21:16:36.055Z,10.70
2018-04-26T21:19:03.685Z,10.70
2018-04-26T21:21:32.085Z,10.70
2018-04-26T21:23:59.684Z,10.70
2018-04-26T21:26:27.281Z,10.70
2018-04-26T21:28:55.739Z,10.60
2018-04-26T21:31:23.305Z,10.60
2018-04-26T21:33:50.941Z,10.60
2018-04-26T21:36:18.539Z,10.60
2018-04-26T21:38:46.937Z,10.60
2018-04-26T21:41:15.333Z,10.60
2018-04-26T21:43:43.969Z,10.60
2018-04-26T21:46:11.609Z,10.70
2018-04-26T21:48:39.201Z,10.70
2018-04-26T21:51:13.289Z,10.70
2018-04-26T21:53:46.741Z,10.70
2018-04-26T21:56:19.945Z,10.70
2018-04-26T21:58:53.193Z,10.70
2018-04-26T22:01:26.308Z,10.60
2018-04-26T22:04:11.624Z,10.70
2018-04-26T22:06:39.207Z,10.70
2018-04-26T22:09:06.839Z,10.80
2018-04-26T22:11:34.464Z,10.80
2018-04-26T22:14:02.821Z,10.80
2018-04-26T22:16:30.441Z,10.80
2018-04-26T22:18:58.033Z,10.70
2018-04-26T22:21:25.667Z,10.70
2018-04-26T22:23:53.977Z,10.70
2018-04-26T22:26:21.609Z,10.70
2018-04-26T22:28:49.198Z,10.70
2018-04-26T22:31:16.853Z,10.70
2018-04-26T22:33:44.454Z,10.70
2018-04-26T22:36:12.082Z,10.70
2018-04-26T22:38:39.721Z,10.70
2018-04-26T22:41:07.312Z,10.70
2018-04-26T22:43:35.726Z,10.60
2018-04-26T22:46:03.376Z,10.60
2018-04-26T22:48:31.013Z,10.70
2018-04-26T22:50:59.376Z,10.70
2018-04-26T22:53:27.017Z,10.70
2018-04-26T22:55:55.414Z,10.60
2018-04-26T22:58:23.044Z,10.60
2018-04-26T23:00:50.676Z,10.70
2018-04-26T23:03:18.295Z,10.70
2018-04-26T23:05:45.928Z,10.70
2018-04-26T23:08:13.521Z,10.70
2018-04-26T23:10:41.149Z,10.70
2018-04-26T23:13:08.786Z,10.80
2018-04-26T23:15:36.377Z,10.70
2018-04-26T23:18:04.017Z,10.70
2018-04-26T23:20:31.612Z,10.70
2018-04-26T23:22:59.246Z,10.70
2018-04-26T23:25:26.832Z,10.70
2018-04-26T23:27:54.474Z,10.70
2018-04-26T23:30:22.060Z,10.60
2018-04-26T23:32:49.697Z,10.60
2018-04-26T23:35:17.285Z,10.60
2018-04-26T23:37:44.916Z,10.50
2018-04-26T23:40:12.544Z,10.50
2018-04-26T23:42:40.131Z,10.60
2018-04-26T23:45:07.756Z,10.60
2018-04-26T23:47:36.114Z,10.50
2018-04-26T23:50:03.733Z,10.50
2018-04-26T23:52:31.401Z,10.40
2018-04-26T23:54:58.989Z,10.40
2018-04-26T23:57:26.608Z,10.40
2018-04-26T23:59:54.196Z,10.50
